Time;durP1;ratioP1;P1;durP2;ratioP2;P2;SDS_P1;SDS_P2;PMS_P1;PMS_P2;Temp;Humidity;BMP_temperature;BMP_pressure;BME280_temperature;BME280_humidity;BME280_pressure;Samples;Min_cycle;Max_cycle;Signal;HPM_P1;HPM_P2
2022/08/13 00:00:32;;;;;;;0.20;0.20;;;;;;;23.76;57.68;101885.97;1979150;29;20092;-63
2022/08/13 00:01:40;;;;;;;0.20;0.20;;;;;;;23.77;57.34;101882.03;1978676;29;20075;-63
2022/08/13 00:02:44;;;;;;;0.30;0.30;;;;;;;23.71;57.48;101887.19;1985535;29;20070;-63
2022/08/13 00:03:49;;;;;;;0.30;0.30;;;;;;;23.71;57.40;101889.16;1983241;29;20173;-63
2022/08/13 00:05:05;;;;;;;0.30;0.30;;;;;;;23.64;57.32;101884.50;1984286;29;20056;-62
2022/08/13 00:07:56;;;;;;;0.20;0.20;;;;;;;23.50;57.70;101884.56;1978776;29;20063;-63
2022/08/13 00:09:04;;;;;;;0.30;0.30;;;;;;;23.54;57.64;101879.81;1981788;29;20427;-62
2022/08/13 00:10:24;;;;;;;0.22;0.22;;;;;;;23.50;57.53;101882.59;1984350;29;20055;-63
2022/08/13 00:13:04;;;;;;;0.20;0.20;;;;;;;23.47;57.93;101885.38;1977275;29;20043;-63
2022/08/13 00:14:07;;;;;;;0.30;0.30;;;;;;;23.46;57.83;101883.81;1972597;29;20063;-64
2022/08/13 00:15:16;;;;;;;0.38;0.38;;;;;;;23.49;57.57;101883.00;1979150;29;20051;-63
2022/08/13 00:16:19;;;;;;;0.30;0.30;;;;;;;23.45;57.61;101882.25;1980629;29;20058;-63
2022/08/13 00:17:22;;;;;;;0.20;0.20;;;;;;;23.46;57.33;101886.56;1985319;29;20059;-63
2022/08/13 00:18:45;;;;;;;0.25;0.25;;;;;;;23.40;57.71;101883.44;1982720;29;20530;-63
2022/08/13 00:19:50;;;;;;;0.20;0.20;;;;;;;23.41;57.29;101886.97;1978123;29;20607;-63
2022/08/13 00:20:58;;;;;;;0.20;0.20;;;;;;;23.40;57.05;101879.91;1975508;29;20137;-63
2022/08/13 00:22:04;;;;;;;0.20;0.20;;;;;;;23.34;56.97;101884.28;1985662;29;20415;-63
2022/08/13 00:23:29;;;;;;;0.20;0.20;;;;;;;23.24;57.37;101891.38;1974737;30;20158;-63
2022/08/13 00:24:52;;;;;;;0.20;0.20;;;;;;;23.19;57.37;101889.03;1978642;29;20052;-63
2022/08/13 00:25:58;;;;;;;0.25;0.25;;;;;;;23.20;57.28;101889.81;1981269;29;20062;-63
2022/08/13 00:27:01;;;;;;;0.25;0.25;;;;;;;23.17;57.07;101879.59;1980463;30;20423;-63
2022/08/13 00:28:05;;;;;;;0.30;0.30;;;;;;;23.13;56.83;101879.63;1981147;29;20054;-63
2022/08/13 00:29:10;;;;;;;0.20;0.20;;;;;;;23.10;56.95;101879.63;1974666;29;20059;-63
2022/08/13 00:30:15;;;;;;;0.20;0.20;;;;;;;23.10;56.87;101880.41;1972012;30;20087;-63
2022/08/13 00:31:33;;;;;;;0.20;0.20;;;;;;;23.06;56.80;101881.59;1975990;29;20404;-63
2022/08/13 00:32:38;;;;;;;0.20;0.20;;;;;;;23.08;57.15;101884.75;1980473;29;20131;-64
2022/08/13 00:33:42;;;;;;;0.30;0.30;;;;;;;23.07;56.89;101881.19;1987246;29;20480;-63
2022/08/13 00:34:51;;;;;;;0.30;0.30;;;;;;;23.07;56.90;101880.44;1984852;29;20062;-63
2022/08/13 00:35:55;;;;;;;0.30;0.30;;;;;;;23.09;56.70;101880.78;1982678;29;20059;-63
2022/08/13 00:36:59;;;;;;;0.22;0.22;;;;;;;23.08;56.88;101879.25;1984573;29;20116;-64
2022/08/13 00:38:13;;;;;;;0.30;0.30;;;;;;;23.06;56.22;101881.59;1983504;29;20559;-63
2022/08/13 00:39:15;;;;;;;0.20;0.20;;;;;;;23.02;56.29;101884.41;1985039;29;20264;-63
2022/08/13 00:40:24;;;;;;;0.30;0.30;;;;;;;23.03;56.47;101885.94;1980251;29;20075;-64
2022/08/13 00:41:37;;;;;;;0.30;0.30;;;;;;;23.00;55.80;101885.97;1980246;30;20234;-63
2022/08/13 00:43:02;;;;;;;0.20;0.20;;;;;;;22.92;56.58;101887.16;1985736;29;20496;-63
2022/08/13 00:44:08;;;;;;;0.20;0.20;;;;;;;22.95;56.20;101894.63;1982448;29;20451;-63
2022/08/13 00:45:12;;;;;;;0.25;0.25;;;;;;;22.94;56.15;101880.09;1980443;29;20067;-63
2022/08/13 00:46:18;;;;;;;0.20;0.20;;;;;;;22.94;56.25;101884.81;1981464;29;20136;-64
2022/08/13 00:48:46;;;;;;;0.30;0.30;;;;;;;22.90;56.16;101881.25;1976658;29;20145;-63
2022/08/13 00:49:55;;;;;;;0.30;0.30;;;;;;;22.87;55.66;101879.31;1980038;29;20086;-64
2022/08/13 00:51:06;;;;;;;0.20;0.20;;;;;;;22.83;56.00;101881.31;1986710;29;20487;-64
2022/08/13 00:52:10;;;;;;;0.20;0.20;;;;;;;22.79;56.48;101888.78;1987206;29;20058;-64
2022/08/13 00:53:17;;;;;;;0.20;0.20;;;;;;;22.82;56.02;101882.47;1983292;29;20169;-64
2022/08/13 00:54:25;;;;;;;0.30;0.30;;;;;;;22.81;56.13;101878.97;1980985;29;20059;-64
2022/08/13 00:55:29;;;;;;;0.20;0.20;;;;;;;22.80;56.10;101880.13;1982988;29;20559;-65
2022/08/13 00:56:34;;;;;;;0.20;0.20;;;;;;;22.84;55.95;101878.16;1981288;29;20145;-64
2022/08/13 00:57:39;;;;;;;0.20;0.20;;;;;;;22.82;55.96;101879.72;1980119;29;20055;-64
2022/08/13 00:58:41;;;;;;;0.20;0.20;;;;;;;22.79;56.26;101872.25;1980054;30;20138;-64
2022/08/13 00:59:46;;;;;;;0.20;0.20;;;;;;;22.78;56.12;101873.44;1977580;29;20063;-63
2022/08/13 01:00:51;;;;;;;0.20;0.20;;;;;;;22.78;56.17;101877.00;1978117;29;20078;-64
2022/08/13 01:01:55;;;;;;;0.22;0.22;;;;;;;22.76;56.13;101873.84;1980322;29;20170;-64
2022/08/13 01:02:58;;;;;;;0.20;0.20;;;;;;;22.72;56.13;101877.81;1982385;29;20054;-64
2022/08/13 01:04:20;;;;;;;;;;;;;;;22.47;56.91;101877.03;1980860;29;20426;-64
2022/08/13 01:05:26;;;;;;;0.20;0.20;;;;;;;22.56;56.50;101874.69;1971899;30;19934;-64
2022/08/13 01:06:39;;;;;;;0.30;0.30;;;;;;;22.57;56.69;101879.00;1980474;29;20059;-64
2022/08/13 01:07:43;;;;;;;0.25;0.25;;;;;;;22.59;56.59;101879.41;1983494;29;20061;-64
2022/08/13 01:08:58;;;;;;;0.20;0.20;;;;;;;22.58;56.63;101873.09;1981497;29;20082;-64
2022/08/13 01:10:01;;;;;;;0.25;0.25;;;;;;;22.59;56.48;101879.41;1980074;29;20059;-64
2022/08/13 01:11:23;;;;;;;0.22;0.22;;;;;;;22.56;56.74;101875.50;1977028;29;20134;-64
2022/08/13 01:12:27;;;;;;;0.25;0.25;;;;;;;22.58;56.60;101877.84;1978559;29;20074;-64
2022/08/13 01:13:33;;;;;;;0.30;0.30;;;;;;;22.60;56.28;101878.22;1986851;29;20159;-64
2022/08/13 01:14:36;;;;;;;0.30;0.30;;;;;;;22.58;56.63;101877.84;1985642;29;20069;-64
2022/08/13 01:15:42;;;;;;;0.28;0.28;;;;;;;22.57;56.67;101873.50;1982012;29;20189;-64
2022/08/13 01:16:57;;;;;;;0.30;0.30;;;;;;;22.54;56.73;101882.56;1980629;29;20051;-64
2022/08/13 01:18:06;;;;;;;0.20;0.20;;;;;;;22.56;56.51;101874.69;1980207;29;20132;-64
2022/08/13 01:19:10;;;;;;;0.20;0.20;;;;;;;22.53;56.92;101872.72;1980179;29;20055;-64
2022/08/13 01:20:20;;;;;;;0.30;0.30;;;;;;;22.54;56.38;101872.34;1979898;29;20063;-64
2022/08/13 01:21:39;;;;;;;0.30;0.30;;;;;;;22.53;56.11;101867.22;1984700;29;20059;-64
2022/08/13 01:22:44;;;;;;;0.20;0.20;;;;;;;22.52;56.91;101873.91;1979553;29;20159;-64
2022/08/13 01:23:50;;;;;;;0.20;0.20;;;;;;;22.53;55.91;101873.53;1979382;29;20067;-64
2022/08/13 01:25:05;;;;;;;0.20;0.20;;;;;;;22.48;56.60;101873.09;1978689;30;20059;-63
2022/08/13 01:26:10;;;;;;;0.30;0.30;;;;;;;22.48;56.67;101875.84;1978474;29;20428;-65
2022/08/13 01:27:13;;;;;;;0.30;0.30;;;;;;;22.48;56.65;101876.66;1979660;29;20051;-64
2022/08/13 01:28:18;;;;;;;0.30;0.30;;;;;;;22.48;56.39;101868.41;1980023;29;20063;-63
2022/08/13 01:29:20;;;;;;;0.30;0.30;;;;;;;22.47;57.22;101866.03;1979652;29;20508;-64
2022/08/13 01:30:24;;;;;;;0.20;0.20;;;;;;;22.48;56.84;101862.09;1979427;29;20132;-64
2022/08/13 01:31:32;;;;;;;0.13;0.13;;;;;;;22.42;57.23;101863.69;1980164;29;20059;-64
2022/08/13 01:32:37;;;;;;;0.22;0.20;;;;;;;22.44;56.89;101866.84;1981256;29;20094;-63
2022/08/13 01:33:59;;;;;;;0.20;0.20;;;;;;;22.39;57.16;101864.47;1979750;29;20059;-64
2022/08/13 01:35:08;;;;;;;0.25;0.25;;;;;;;22.37;57.19;101866.84;1980505;29;20059;-64
2022/08/13 01:36:11;;;;;;;0.20;0.20;;;;;;;22.39;57.38;101869.97;1986983;29;20109;-64
2022/08/13 01:37:21;;;;;;;0.30;0.30;;;;;;;22.39;57.20;101869.97;1984452;29;20130;-64
2022/08/13 01:38:27;;;;;;;0.20;0.20;;;;;;;22.35;56.80;101866.44;1984613;29;20058;-64
2022/08/13 01:39:31;;;;;;;0.20;0.20;;;;;;;22.35;57.02;101871.94;1980364;29;20489;-64
2022/08/13 01:40:41;;;;;;;0.20;0.20;;;;;;;22.30;57.04;101866.81;1980526;29;20496;-64
2022/08/13 01:41:49;;;;;;;0.30;0.30;;;;;;;22.27;56.82;101867.63;1977989;29;20054;-64
2022/08/13 01:42:58;;;;;;;0.30;0.30;;;;;;;22.28;57.22;101872.72;1978734;30;20074;-64
2022/08/13 01:44:05;;;;;;;0.20;0.20;;;;;;;22.25;57.37;101864.50;1985557;29;20051;-65
2022/08/13 01:45:20;;;;;;;0.20;0.20;;;;;;;22.22;57.05;101874.31;1983695;29;20360;-64
2022/08/13 01:46:23;;;;;;;0.20;0.20;;;;;;;22.23;57.20;101871.16;1979394;29;20548;-64
2022/08/13 01:50:29;;;;;;;0.20;0.20;;;;;;;22.13;57.28;101869.22;1984889;29;20081;-64
2022/08/13 01:51:37;;;;;;;0.20;0.20;;;;;;;22.16;57.48;101873.94;1985106;29;20092;-64
2022/08/13 01:52:47;;;;;;;0.30;0.30;;;;;;;22.17;56.87;101875.50;1983295;29;20415;-64
2022/08/13 01:53:51;;;;;;;0.20;0.20;;;;;;;22.14;57.49;101870.78;1980023;29;20078;-64
2022/08/13 01:54:53;;;;;;;0.30;0.30;;;;;;;22.13;56.87;101869.22;1979937;29;20058;-64
2022/08/13 01:55:58;;;;;;;0.20;0.20;;;;;;;22.12;57.47;101870.38;1979016;29;20067;-64
2022/08/13 01:57:18;;;;;;;0.20;0.20;;;;;;;22.05;57.40;101867.66;1979604;29;20093;-64
2022/08/13 01:58:24;;;;;;;0.28;0.28;;;;;;;22.06;57.26;101877.47;1984431;29;20062;-64
2022/08/13 01:59:29;;;;;;;0.30;0.30;;;;;;;21.99;57.39;101868.44;1985115;29;20059;-64
2022/08/13 02:00:57;;;;;;;0.20;0.20;;;;;;;21.98;57.54;101866.84;1984150;29;20389;-64
2022/08/13 02:02:01;;;;;;;0.30;0.30;;;;;;;21.96;57.70;101866.47;1978725;29;20065;-64
2022/08/13 02:03:11;;;;;;;0.30;0.30;;;;;;;21.96;57.75;101869.22;1982125;29;20507;-64
2022/08/13 02:04:17;;;;;;;0.20;0.20;;;;;;;21.95;57.81;101862.94;1984496;29;20104;-64
2022/08/13 02:05:27;;;;;;;0.17;0.17;;;;;;;21.92;57.90;101869.22;1983128;29;20518;-64
2022/08/13 02:06:49;;;;;;;0.20;0.20;;;;;;;21.87;58.16;101861.34;1979802;29;20673;-64
2022/08/13 02:07:57;;;;;;;0.20;0.20;;;;;;;21.91;58.17;101866.88;1982674;29;20452;-64
2022/08/13 02:09:05;;;;;;;0.20;0.20;;;;;;;21.88;58.37;101868.41;1979300;29;20440;-64
2022/08/13 02:10:28;;;;;;;0.20;0.20;;;;;;;21.84;57.77;101870.38;1978587;29;20420;-64
2022/08/13 02:11:34;;;;;;;0.20;0.20;;;;;;;21.88;58.06;101864.91;1985529;29;20522;-64
2022/08/13 02:12:48;;;;;;;0.20;0.20;;;;;;;21.82;58.22;101867.25;1981689;29;20135;-65
2022/08/13 02:13:52;;;;;;;0.25;0.25;;;;;;;21.83;57.80;101874.34;1981440;29;20129;-64
2022/08/13 02:14:58;;;;;;;0.20;0.20;;;;;;;21.82;57.88;101870.00;1981273;29;20063;-64
2022/08/13 02:16:00;;;;;;;0.30;0.30;;;;;;;21.75;57.96;101870.00;1980711;29;20491;-64
2022/08/13 02:17:24;;;;;;;0.20;0.20;;;;;;;21.71;58.28;101863.66;1979200;29;20184;-64
2022/08/13 02:18:53;;;;;;;0.20;0.20;;;;;;;21.62;58.25;101868.78;1980732;29;20416;-64
2022/08/13 02:19:55;;;;;;;0.30;0.30;;;;;;;21.64;58.25;101868.38;1984661;29;20107;-64
2022/08/13 02:21:01;;;;;;;0.30;0.30;;;;;;;21.65;58.26;101867.97;1984043;29;20103;-63
2022/08/13 02:22:18;;;;;;;0.30;0.30;;;;;;;21.61;58.38;101869.16;1984851;29;20058;-63
2022/08/13 02:23:32;;;;;;;0.22;0.22;;;;;;;21.59;58.56;101872.31;1979516;30;20508;-63
2022/08/13 02:24:57;;;;;;;0.28;0.28;;;;;;;21.49;58.47;101873.06;1979299;30;20059;-63
2022/08/13 02:26:05;;;;;;;0.28;0.28;;;;;;;21.47;58.31;101871.88;1986270;29;20468;-63
2022/08/13 02:27:11;;;;;;;0.30;0.30;;;;;;;21.38;59.01;101872.25;1977202;29;20062;-63
2022/08/13 02:28:18;;;;;;;0.30;0.30;;;;;;;21.35;59.10;101869.47;1977981;29;20424;-63
2022/08/13 02:29:28;;;;;;;0.28;0.28;;;;;;;21.29;59.11;101862.78;1980369;29;20070;-63
2022/08/13 02:30:35;;;;;;;0.30;0.30;;;;;;;21.25;59.58;101867.50;1979547;29;20518;-63
2022/08/13 02:31:36;;;;;;;0.20;0.20;;;;;;;21.29;58.98;101871.84;1979537;29;20055;-63
2022/08/13 02:33:00;;;;;;;0.30;0.30;;;;;;;21.24;59.55;101869.47;1979626;29;20120;-63
2022/08/13 02:34:03;;;;;;;0.30;0.30;;;;;;;21.27;59.26;101876.91;1979037;29;20051;-63
2022/08/13 02:35:19;;;;;;;0.30;0.30;;;;;;;21.26;59.15;101866.31;1979235;29;20842;-64
2022/08/13 02:36:25;;;;;;;0.30;0.30;;;;;;;21.25;58.95;101868.28;1987790;29;20484;-63
2022/08/13 02:37:32;;;;;;;0.28;0.28;;;;;;;21.19;59.57;101864.34;1977830;29;20058;-63
2022/08/13 02:38:54;;;;;;;0.30;0.30;;;;;;;21.12;59.41;101869.78;1977783;29;20082;-63
2022/08/13 02:39:57;;;;;;;0.20;0.20;;;;;;;21.09;59.46;101869.81;1978914;29;20454;-63
2022/08/13 02:42:22;;;;;;;0.20;0.20;;;;;;;20.99;59.79;101865.84;1978832;29;20047;-63
2022/08/13 02:43:25;;;;;;;0.30;0.30;;;;;;;20.99;59.48;101873.28;1979114;29;20063;-63
2022/08/13 02:44:28;;;;;;;0.30;0.30;;;;;;;20.94;59.92;101863.44;1979710;29;20157;-63
2022/08/13 02:45:36;;;;;;;0.30;0.30;;;;;;;20.88;60.18;101864.97;1982610;29;20075;-63
2022/08/13 02:46:49;;;;;;;0.20;0.20;;;;;;;20.87;60.38;101863.38;1985054;29;20488;-63
2022/08/13 02:47:52;;;;;;;0.22;0.22;;;;;;;20.84;60.22;101869.66;1983469;29;20067;-63
2022/08/13 02:48:59;;;;;;;0.30;0.30;;;;;;;20.83;60.25;101862.59;1978844;29;20055;-63
2022/08/13 02:50:04;;;;;;;0.30;0.30;;;;;;;20.83;59.71;101876.31;1983087;29;20063;-63
2022/08/13 02:51:06;;;;;;;0.20;0.20;;;;;;;20.80;60.20;101869.63;1979011;29;20126;-63
2022/08/13 02:52:12;;;;;;;0.30;0.30;;;;;;;20.82;60.38;101871.97;1979678;29;20100;-62
2022/08/13 02:53:14;;;;;;;0.30;0.30;;;;;;;20.81;59.88;101875.91;1979290;29;20083;-63
2022/08/13 02:54:34;;;;;;;0.30;0.30;;;;;;;20.78;60.37;101872.00;1980475;29;20086;-63
2022/08/13 02:55:36;;;;;;;0.20;0.20;;;;;;;20.78;59.91;101872.00;1984944;29;20058;-63
2022/08/13 02:56:44;;;;;;;0.20;0.20;;;;;;;20.78;59.95;101871.19;1989805;29;20069;-62
2022/08/13 02:57:46;;;;;;;0.30;0.30;;;;;;;20.78;60.17;101871.19;1982881;29;20365;-63
2022/08/13 02:58:53;;;;;;;0.20;0.20;;;;;;;20.76;59.53;101868.03;1983848;29;20062;-63
2022/08/13 02:59:55;;;;;;;0.25;0.25;;;;;;;20.77;60.01;101875.13;1983566;29;20102;-63
2022/08/13 03:01:11;;;;;;;0.20;0.20;;;;;;;20.72;59.98;101872.72;1982123;29;20066;-64
2022/08/13 03:02:17;;;;;;;0.20;0.20;;;;;;;20.67;59.90;101862.91;1980060;29;20153;-63
2022/08/13 03:03:22;;;;;;;0.30;0.30;;;;;;;20.68;59.83;101869.16;1979011;29;20551;-63
2022/08/13 03:04:24;;;;;;;0.30;0.30;;;;;;;20.68;59.82;101872.72;1986445;29;20062;-63
2022/08/13 03:05:36;;;;;;;0.30;0.30;;;;;;;20.65;59.92;101865.25;1984599;29;20093;-63
2022/08/13 03:06:58;;;;;;;0.30;0.30;;;;;;;20.60;59.96;101870.28;1985660;29;20051;-63
2022/08/13 03:08:03;;;;;;;0.30;0.30;;;;;;;20.66;59.68;101868.78;1983808;29;20125;-63
2022/08/13 03:09:11;;;;;;;0.30;0.30;;;;;;;20.68;59.90;101869.16;1981993;29;20059;-63
2022/08/13 03:10:20;;;;;;;0.30;0.30;;;;;;;20.68;59.85;101875.44;1972844;30;20424;-63
2022/08/13 03:11:41;;;;;;;0.20;0.20;;;;;;;20.64;59.68;101871.13;1980125;29;20052;-63
2022/08/13 03:12:48;;;;;;;0.32;0.32;;;;;;;20.64;59.62;101865.63;1984273;29;20504;-63
2022/08/13 03:13:56;;;;;;;0.30;0.30;;;;;;;20.64;59.86;101871.13;1981231;29;20074;-63
2022/08/13 03:14:59;;;;;;;0.30;0.30;;;;;;;20.64;59.61;101871.13;1985527;29;20082;-63
2022/08/13 03:16:04;;;;;;;0.30;0.30;;;;;;;20.61;59.50;101871.88;1980960;29;20062;-64
2022/08/13 03:17:10;;;;;;;0.30;0.30;;;;;;;20.59;60.02;101869.53;1973272;29;20101;-63
2022/08/13 03:18:25;;;;;;;0.20;0.20;;;;;;;20.59;59.90;101880.50;1973145;29;20056;-63
2022/08/13 03:19:41;;;;;;;0.30;0.30;;;;;;;20.61;59.38;101869.16;1972903;29;20055;-64
2022/08/13 03:20:48;;;;;;;0.20;0.20;;;;;;;20.59;59.79;101869.53;1977104;30;20055;-63
2022/08/13 03:21:51;;;;;;;0.30;0.30;;;;;;;20.62;59.71;101881.69;1979210;29;20055;-63
2022/08/13 03:22:55;;;;;;;0.30;0.30;;;;;;;20.64;59.52;101871.88;1984979;29;20137;-63
2022/08/13 03:24:00;;;;;;;0.20;0.20;;;;;;;20.61;59.33;101880.13;1982645;29;20146;-63
2022/08/13 03:25:07;;;;;;;0.20;0.20;;;;;;;20.60;59.43;101871.09;1982165;29;20055;-63
2022/08/13 03:26:12;;;;;;;0.20;0.20;;;;;;;20.59;59.38;101872.28;1983000;29;20554;-63
2022/08/13 03:27:15;;;;;;;0.20;0.20;;;;;;;20.54;59.42;101878.13;1980523;29;20525;-63
2022/08/13 03:28:20;;;;;;;0.30;0.30;;;;;;;20.54;59.45;101872.63;1979103;30;20489;-63
2022/08/13 03:29:23;;;;;;;0.30;0.30;;;;;;;20.52;59.43;101879.66;1985018;29;20066;-63
2022/08/13 03:30:48;;;;;;;0.30;0.30;;;;;;;20.47;59.59;101869.81;1983928;29;20043;-63
2022/08/13 03:31:56;;;;;;;0.20;0.20;;;;;;;20.45;59.61;101879.63;1977743;29;20054;-63
2022/08/13 03:33:04;;;;;;;0.30;0.30;;;;;;;20.44;59.63;101878.81;1977841;29;20059;-64
2022/08/13 03:34:12;;;;;;;0.30;0.30;;;;;;;20.43;59.73;101879.22;1982981;29;20070;-63
2022/08/13 03:35:18;;;;;;;0.30;0.30;;;;;;;20.42;59.74;101874.91;1980339;29;20094;-63
2022/08/13 03:36:41;;;;;;;0.30;0.30;;;;;;;20.33;60.16;101880.72;1988454;29;20617;-63
2022/08/13 03:37:46;;;;;;;0.30;0.30;;;;;;;20.36;59.93;101881.91;1978923;29;20606;-64
2022/08/13 03:38:50;;;;;;;0.30;0.30;;;;;;;20.35;59.98;101881.13;1986007;29;20047;-64
2022/08/13 03:39:53;;;;;;;0.30;0.30;;;;;;;20.34;59.84;101878.75;1981667;29;20101;-64
2022/08/13 03:41:11;;;;;;;0.30;0.30;;;;;;;20.30;59.90;101886.16;1982212;29;20246;-64
2022/08/13 03:42:16;;;;;;;0.30;0.30;;;;;;;20.24;60.05;101884.94;1981761;29;20508;-64
2022/08/13 03:43:32;;;;;;;0.30;0.30;;;;;;;20.20;60.33;101882.16;1979095;29;20059;-63
2022/08/13 03:44:54;;;;;;;0.20;0.20;;;;;;;20.16;60.40;101884.13;1981898;29;20055;-64
2022/08/13 03:45:57;;;;;;;0.30;0.30;;;;;;;20.19;60.17;101883.34;1984210;29;20058;-63
2022/08/13 03:46:59;;;;;;;0.30;0.30;;;;;;;20.19;60.40;101877.88;1984827;29;20054;-64
2022/08/13 03:48:04;;;;;;;0.30;0.30;;;;;;;20.23;60.08;101883.38;1985467;29;20440;-64
2022/08/13 03:49:06;;;;;;;0.30;0.30;;;;;;;20.24;60.51;101884.94;1980322;29;20055;-64
2022/08/13 03:50:14;;;;;;;0.30;0.30;;;;;;;20.24;60.45;101874.78;1980781;29;20059;-64
2022/08/13 03:51:20;;;;;;;0.30;0.30;;;;;;;20.27;60.08;101884.19;1982601;29;20137;-63
2022/08/13 03:52:24;;;;;;;0.30;0.30;;;;;;;20.23;60.33;101877.91;1970391;30;20063;-64
2022/08/13 03:53:39;;;;;;;0.28;0.28;;;;;;;20.25;60.28;101883.78;1966756;29;20485;-64
2022/08/13 03:54:45;;;;;;;0.30;0.30;;;;;;;20.24;60.16;101876.72;1983728;29;20059;-64
2022/08/13 03:55:48;;;;;;;0.20;0.20;;;;;;;20.24;60.05;101874.78;1981249;29;20066;-64
2022/08/13 03:56:53;;;;;;;0.30;0.30;;;;;;;20.19;60.37;101877.06;1980725;29;20519;-64
2022/08/13 03:58:03;;;;;;;;;;;;;;;19.94;60.95;101876.06;1981931;29;20055;-63
2022/08/13 03:59:17;;;;;;;0.40;0.40;;;;;;;20.01;60.69;101876.13;1981575;29;20432;-64
2022/08/13 04:00:22;;;;;;;0.30;0.30;;;;;;;20.05;60.57;101874.19;1987053;29;20089;-64
2022/08/13 04:01:27;;;;;;;0.40;0.40;;;;;;;20.05;60.52;101877.72;1985798;29;20116;-64
2022/08/13 04:02:29;;;;;;;0.40;0.40;;;;;;;20.05;60.32;101874.19;1982504;29;20194;-64
2022/08/13 04:03:41;;;;;;;0.40;0.40;;;;;;;20.02;60.43;101878.50;1982535;29;20140;-64
2022/08/13 04:04:47;;;;;;;0.30;0.30;;;;;;;20.00;60.58;101880.00;1982450;29;20119;-64
2022/08/13 04:05:58;;;;;;;0.40;0.40;;;;;;;20.02;60.42;101883.19;1985315;29;20050;-64
2022/08/13 04:07:04;;;;;;;0.40;0.40;;;;;;;20.00;60.39;101883.56;1980685;29;20511;-64
2022/08/13 04:08:07;;;;;;;0.40;0.40;;;;;;;20.01;60.52;101876.91;1985648;29;20533;-64
2022/08/13 04:09:16;;;;;;;0.40;0.40;;;;;;;20.01;60.22;101876.91;1984399;29;21180;-63
2022/08/13 04:10:18;;;;;;;0.40;0.40;;;;;;;20.02;60.40;101872.22;1981928;29;20055;-64
2022/08/13 04:11:26;;;;;;;0.30;0.30;;;;;;;20.01;60.18;101881.63;1981918;29;20738;-63
2022/08/13 04:12:31;;;;;;;0.32;0.32;;;;;;;20.00;60.31;101874.53;1980066;29;20508;-64
2022/08/13 04:13:38;;;;;;;0.38;0.38;;;;;;;20.01;60.10;101876.13;1980206;29;20481;-64
2022/08/13 04:15:00;;;;;;;0.40;0.40;;;;;;;19.96;60.17;101879.22;1980661;29;20213;-65
2022/08/13 04:16:07;;;;;;;0.30;0.30;;;;;;;20.01;60.02;101881.63;1984769;29;20062;-64
2022/08/13 04:17:15;;;;;;;0.30;0.30;;;;;;;20.04;60.01;101883.59;1981175;29;20442;-64
2022/08/13 04:18:20;;;;;;;0.40;0.40;;;;;;;20.04;60.00;101883.59;1981840;29;20063;-64
2022/08/13 04:19:23;;;;;;;0.40;0.40;;;;;;;20.05;59.94;101883.22;1981397;29;20100;-64
2022/08/13 04:20:27;;;;;;;0.30;0.30;;;;;;;20.09;59.96;101886.00;1986162;29;20141;-64
2022/08/13 04:21:31;;;;;;;0.40;0.40;;;;;;;20.09;59.82;101880.50;1986909;29;20471;-64
2022/08/13 04:22:36;;;;;;;0.40;0.40;;;;;;;20.07;59.79;101875.41;1986511;29;20055;-64
2022/08/13 04:23:43;;;;;;;0.40;0.40;;;;;;;20.06;60.18;101878.53;1981225;29;20059;-64
2022/08/13 04:24:48;;;;;;;0.40;0.40;;;;;;;20.08;59.94;101878.91;1972520;30;20056;-64
2022/08/13 04:25:50;;;;;;;0.40;0.40;;;;;;;20.08;59.76;101878.91;1973708;29;20142;-64
2022/08/13 04:26:53;;;;;;;0.40;0.40;;;;;;;20.09;59.94;101880.50;1980585;29;20134;-64
2022/08/13 04:27:55;;;;;;;0.40;0.40;;;;;;;20.11;59.91;101875.41;1979612;30;20543;-64
2022/08/13 04:29:09;;;;;;;0.35;0.35;;;;;;;20.14;59.57;101880.97;1981266;29;20086;-64
2022/08/13 04:30:16;;;;;;;0.40;0.40;;;;;;;20.13;59.73;101878.56;1979389;29;20555;-64
2022/08/13 04:31:20;;;;;;;0.40;0.40;;;;;;;20.12;59.71;101882.50;1980466;29;20416;-64
2022/08/13 04:32:26;;;;;;;0.40;0.40;;;;;;;20.09;59.70;101886.00;1982638;29;20085;-64
2022/08/13 04:33:51;;;;;;;0.40;0.40;;;;;;;20.04;59.73;101880.84;1980756;29;20791;-64
2022/08/13 04:35:15;;;;;;;0.40;0.40;;;;;;;20.03;59.85;101882.78;1984813;29;20456;-64
2022/08/13 04:36:19;;;;;;;0.40;0.40;;;;;;;20.04;59.64;101881.63;1984937;29;20070;-64
2022/08/13 04:37:31;;;;;;;0.40;0.40;;;;;;;19.99;59.82;101883.94;1985773;29;20138;-64
2022/08/13 04:38:36;;;;;;;0.35;0.35;;;;;;;20.02;59.72;101885.91;1982819;29;20127;-64
2022/08/13 04:39:40;;;;;;;0.30;0.30;;;;;;;20.04;59.60;101880.84;1980220;29;20059;-64
2022/08/13 04:41:10;;;;;;;0.30;0.30;;;;;;;20.00;59.79;101877.28;1980205;30;20063;-64
2022/08/13 04:42:17;;;;;;;0.30;0.30;;;;;;;20.01;59.51;101882.38;1980023;29;20059;-64
2022/08/13 04:43:36;;;;;;;0.40;0.40;;;;;;;20.00;59.56;101882.75;1984117;29;20548;-64
2022/08/13 04:44:43;;;;;;;0.40;0.40;;;;;;;19.98;59.79;101877.66;1982500;29;20059;-64
2022/08/13 04:45:50;;;;;;;0.40;0.40;;;;;;;19.95;59.82;101877.63;1984241;29;20130;-64
2022/08/13 04:46:55;;;;;;;0.35;0.35;;;;;;;19.90;59.80;101875.25;1984947;29;20051;-63
2022/08/13 04:48:02;;;;;;;0.32;0.32;;;;;;;19.86;60.23;101882.63;1980364;29;20132;-63
2022/08/13 04:49:12;;;;;;;0.30;0.30;;;;;;;19.74;60.15;101877.44;1980102;30;20055;-63
2022/08/13 04:50:18;;;;;;;0.30;0.30;;;;;;;19.72;60.35;101875.09;1980014;29;20062;-63
2022/08/13 04:51:21;;;;;;;0.30;0.30;;;;;;;19.72;59.96;101874.28;1986472;29;20069;-63
2022/08/13 04:52:24;;;;;;;0.40;0.40;;;;;;;19.69;60.59;101875.03;1987064;29;20067;-63
2022/08/13 04:53:35;;;;;;;0.40;0.40;;;;;;;19.68;60.67;101885.22;1983254;29;20062;-63
2022/08/13 04:54:52;;;;;;;0.30;0.30;;;;;;;19.59;60.78;101878.47;1986952;29;20119;-64
2022/08/13 04:55:56;;;;;;;0.30;0.30;;;;;;;19.61;60.89;101878.88;1984275;29;20139;-63
2022/08/13 04:57:14;;;;;;;0.40;0.40;;;;;;;19.57;60.86;101884.31;1986095;29;20054;-63
2022/08/13 04:58:19;;;;;;;0.40;0.40;;;;;;;19.60;60.59;101883.56;1982679;29;20055;-63
2022/08/13 04:59:23;;;;;;;0.40;0.40;;;;;;;19.65;60.62;101880.47;1994813;29;20151;-63
2022/08/13 05:00:33;;;;;;;0.40;0.40;;;;;;;19.65;60.57;101883.22;1985460;29;20058;-63
2022/08/13 05:01:39;;;;;;;0.40;0.40;;;;;;;19.64;60.90;101889.06;1986653;29;20055;-63
2022/08/13 05:02:54;;;;;;;0.38;0.38;;;;;;;19.63;60.50;101885.53;1988856;29;20062;-63
2022/08/13 05:03:59;;;;;;;0.30;0.30;;;;;;;19.61;60.83;101878.88;1991391;29;20083;-63
2022/08/13 05:05:24;;;;;;;0.35;0.35;;;;;;;19.61;60.85;101887.09;1979442;29;20063;-63
2022/08/13 05:06:27;;;;;;;0.30;0.30;;;;;;;19.65;60.74;101879.69;1983928;29;20109;-63
2022/08/13 05:07:31;;;;;;;0.30;0.30;;;;;;;19.67;60.69;101880.09;1978116;29;20090;-64
2022/08/13 05:08:34;;;;;;;0.30;0.30;;;;;;;19.69;60.54;101884.06;1972152;30;20059;-63
2022/08/13 05:09:40;;;;;;;0.40;0.40;;;;;;;19.73;60.63;101882.13;1984634;29;20146;-63
2022/08/13 05:10:55;;;;;;;0.40;0.40;;;;;;;19.75;60.60;101879.81;1985110;29;20495;-63
2022/08/13 05:11:59;;;;;;;0.38;0.38;;;;;;;19.79;60.35;101879.84;1971942;30;20064;-64
2022/08/13 05:13:21;;;;;;;0.40;0.40;;;;;;;19.74;60.60;101880.94;1978014;29;20090;-63
2022/08/13 05:14:24;;;;;;;0.30;0.30;;;;;;;19.78;60.43;101883.72;1980055;29;20122;-63
2022/08/13 05:15:39;;;;;;;;;;;;;;;19.60;60.88;101878.06;1981167;29;20051;-64
2022/08/13 05:16:44;;;;;;;0.40;0.40;;;;;;;19.74;60.34;101883.69;1987415;29;19960;-64
2022/08/13 05:17:50;;;;;;;0.40;0.40;;;;;;;19.82;60.36;101879.09;1987208;29;20063;-63
2022/08/13 05:18:54;;;;;;;0.40;0.40;;;;;;;19.86;60.16;101880.69;1984107;29;20079;-64
2022/08/13 05:19:58;;;;;;;0.30;0.30;;;;;;;19.88;60.09;101883.06;1987476;29;20062;-63
2022/08/13 05:21:03;;;;;;;0.30;0.30;;;;;;;19.92;60.08;101889.34;1987018;29;20066;-63
2022/08/13 05:22:07;;;;;;;0.40;0.40;;;;;;;19.90;60.03;101881.50;1986244;29;20062;-63
2022/08/13 05:23:28;;;;;;;0.38;0.38;;;;;;;19.88;60.31;101885.78;1987300;29;20085;-63
2022/08/13 05:24:51;;;;;;;0.35;0.35;;;;;;;19.89;60.20;101885.41;1979919;30;20535;-64
2022/08/13 05:26:13;;;;;;;0.40;0.40;;;;;;;19.94;60.23;101882.34;1993463;29;20111;-63
2022/08/13 05:27:36;;;;;;;0.30;0.30;;;;;;;19.99;60.13;101883.94;1987713;29;20150;-64
2022/08/13 05:28:42;;;;;;;0.40;0.40;;;;;;;20.09;60.04;101880.50;1986977;29;20097;-63